createdAt,value
2024-02-21T00:01:28.273Z,3.25
2024-02-21T00:03:55.615Z,3.65
2024-02-21T00:06:23.254Z,2.95
2024-02-21T00:08:50.768Z,2.95
2024-02-21T00:11:18.528Z,3.17
2024-02-21T00:13:45.982Z,3.80
2024-02-21T00:16:14.599Z,3.25
2024-02-21T00:18:41.948Z,3.30
2024-02-21T00:21:09.240Z,2.90
2024-02-21T00:23:36.698Z,2.97
2024-02-21T00:26:04.177Z,2.95
2024-02-21T00:28:31.577Z,3.85
2024-02-21T00:30:58.853Z,3.55
2024-02-21T00:33:26.289Z,3.65
2024-02-21T00:35:53.915Z,2.92
2024-02-21T00:38:21.779Z,2.83
2024-02-21T00:40:49.209Z,2.97
2024-02-21T00:43:16.653Z,3.30
2024-02-21T00:45:44.346Z,2.78
2024-02-21T00:48:11.851Z,3.45
2024-02-21T00:50:39.211Z,3.95
2024-02-21T00:53:06.485Z,3.33
2024-02-21T00:55:34.005Z,2.92
2024-02-21T00:58:01.358Z,2.75
2024-02-21T01:00:29.391Z,3.60
2024-02-21T01:02:56.618Z,2.75
2024-02-21T01:05:23.967Z,3.25
2024-02-21T01:07:51.459Z,3.97
2024-02-21T01:10:19.116Z,2.65
2024-02-21T01:12:46.577Z,2.67
2024-02-21T01:15:13.976Z,2.83
2024-02-21T01:17:44.585Z,2.83
2024-02-21T01:20:12.263Z,2.30
2024-02-21T01:22:39.574Z,4.40
2024-02-21T01:25:07.269Z,3.28
2024-02-21T01:27:34.490Z,3.03
2024-02-21T01:30:02.120Z,2.33
2024-02-21T01:32:29.573Z,2.47
2024-02-21T01:34:57.131Z,3.80
2024-02-21T01:37:24.647Z,3.13
2024-02-21T01:39:52.066Z,2.95
2024-02-21T01:42:19.432Z,2.97
2024-02-21T01:44:46.765Z,1.95
2024-02-21T01:47:15.098Z,3.47
2024-02-21T01:49:42.960Z,3.20
2024-02-21T01:52:11.094Z,3.53
2024-02-21T01:54:39.369Z,4.00
2024-02-21T01:57:07.192Z,3.03
2024-02-21T01:59:34.533Z,3.53
2024-02-21T02:02:02.285Z,3.63
2024-02-21T02:04:29.828Z,3.42
2024-02-21T02:06:57.453Z,3.00
2024-02-21T02:09:25.019Z,3.75
2024-02-21T02:11:52.858Z,3.33
2024-02-21T02:14:20.291Z,3.67
2024-02-21T02:16:49.179Z,4.35
2024-02-21T02:19:17.391Z,2.70
2024-02-21T02:21:48.454Z,3.05
2024-02-21T02:24:15.890Z,2.97
2024-02-21T02:26:43.380Z,3.50
2024-02-21T02:29:10.747Z,4.05
2024-02-21T02:31:39.639Z,4.60
2024-02-21T02:34:07.072Z,3.60
2024-02-21T02:36:35.564Z,4.15
2024-02-21T02:39:03.021Z,4.78
2024-02-21T02:41:30.364Z,3.33
2024-02-21T02:43:57.818Z,3.47
2024-02-21T02:46:25.313Z,3.92
2024-02-21T02:48:52.747Z,4.75
2024-02-21T02:51:20.162Z,4.40
2024-02-21T02:53:47.517Z,4.25
2024-02-21T02:56:17.989Z,3.80
2024-02-21T02:58:45.637Z,3.85
2024-02-21T03:01:13.129Z,4.50
2024-02-21T03:03:40.483Z,3.40
2024-02-21T03:06:07.994Z,3.97
2024-02-21T03:08:35.383Z,4.45
2024-02-21T03:11:02.839Z,4.40
2024-02-21T03:13:30.361Z,4.38
2024-02-21T03:15:57.725Z,4.15
2024-02-21T03:18:25.235Z,4.40
2024-02-21T03:20:52.659Z,4.85
2024-02-21T03:23:20.027Z,3.25
2024-02-21T03:25:47.453Z,4.35
2024-02-21T03:28:14.848Z,4.13
2024-02-21T03:30:42.141Z,3.65
2024-02-21T03:33:09.608Z,3.03
2024-02-21T03:35:36.957Z,5.30
2024-02-21T03:38:04.378Z,3.72
2024-02-21T03:40:32.426Z,3.83
2024-02-21T03:42:59.703Z,4.15
2024-02-21T03:45:27.307Z,5.60
2024-02-21T03:47:54.719Z,3.60
2024-02-21T03:50:22.102Z,2.63
2024-02-21T03:52:49.475Z,4.05
2024-02-21T03:55:16.977Z,3.80
2024-02-21T03:57:44.350Z,3.47
2024-02-21T04:00:12.245Z,3.63
2024-02-21T04:02:39.811Z,2.80
2024-02-21T04:05:07.486Z,3.88
2024-02-21T04:07:35.031Z,3.67
2024-02-21T04:10:02.373Z,2.65
2024-02-21T04:12:29.747Z,3.83
2024-02-21T04:14:57.123Z,3.47
2024-02-21T04:17:24.430Z,4.88
2024-02-21T04:19:52.143Z,4.18
2024-02-21T04:22:19.610Z,4.13
2024-02-21T04:24:47.029Z,3.50
2024-02-21T04:27:14.339Z,3.30
2024-02-21T04:29:41.720Z,3.65
2024-02-21T04:32:09.947Z,4.35
2024-02-21T04:34:37.352Z,3.65
2024-02-21T04:37:05.190Z,4.07
2024-02-21T04:39:32.466Z,3.63
2024-02-21T04:41:59.887Z,3.85
2024-02-21T04:44:27.161Z,4.10
2024-02-21T04:46:54.615Z,3.10
2024-02-21T04:49:22.107Z,3.67
2024-02-21T04:51:49.406Z,3.78
2024-02-21T04:54:16.811Z,3.58
2024-02-21T04:56:44.119Z,4.03
2024-02-21T04:59:11.686Z,3.47
2024-02-21T05:01:39.156Z,4.05
2024-02-21T05:04:06.996Z,4.20
2024-02-21T05:06:34.396Z,3.88
2024-02-21T05:09:01.803Z,3.13
2024-02-21T05:11:29.125Z,3.40
2024-02-21T05:13:56.651Z,3.33
2024-02-21T05:16:24.116Z,4.63
2024-02-21T05:18:51.578Z,2.78
2024-02-21T05:21:19.305Z,3.72
2024-02-21T05:23:46.693Z,4.45
2024-02-21T05:26:21.612Z,3.30
2024-02-21T05:28:49.041Z,4.13
2024-02-21T05:31:16.905Z,4.30
2024-02-21T05:33:45.048Z,3.47
2024-02-21T05:36:12.609Z,4.30
2024-02-21T05:38:40.134Z,3.75
2024-02-21T05:41:11.025Z,3.85
2024-02-21T05:43:39.763Z,3.25
2024-02-21T05:46:07.323Z,4.00
2024-02-21T05:48:38.090Z,4.90
2024-02-21T05:51:07.021Z,4.32
2024-02-21T05:53:34.377Z,4.22
2024-02-21T05:56:02.630Z,4.03
2024-02-21T05:58:32.413Z,4.15
2024-02-21T06:00:59.799Z,4.03
2024-02-21T06:03:27.364Z,4.05
2024-02-21T06:05:55.351Z,4.30
2024-02-21T06:08:22.732Z,4.88
2024-02-21T06:10:50.282Z,5.05
2024-02-21T06:13:17.766Z,5.05
2024-02-21T06:15:45.109Z,4.07
2024-02-21T06:18:12.617Z,3.25
2024-02-21T06:20:41.482Z,4.05
2024-02-21T06:23:09.032Z,4.82
2024-02-21T06:25:36.663Z,4.32
2024-02-21T06:28:04.136Z,4.10
2024-02-21T06:30:31.507Z,4.70
2024-02-21T06:33:00.446Z,5.28
2024-02-21T06:35:28.294Z,5.00
2024-02-21T06:37:55.787Z,4.28
2024-02-21T06:40:24.747Z,5.13
2024-02-21T06:42:52.441Z,5.70
2024-02-21T06:45:19.966Z,4.07
2024-02-21T06:47:48.356Z,4.80
2024-02-21T06:50:17.781Z,4.15
2024-02-21T06:52:45.333Z,4.43
2024-02-21T06:55:12.922Z,4.20
2024-02-21T06:57:40.255Z,4.05
2024-02-21T07:00:09.262Z,4.75
2024-02-21T07:02:36.718Z,3.17
2024-02-21T07:05:04.768Z,3.92
2024-02-21T07:07:32.239Z,4.75
2024-02-21T07:10:01.587Z,3.55
2024-02-21T07:12:29.026Z,3.47
2024-02-21T07:14:56.502Z,3.88
2024-02-21T07:17:23.933Z,4.63
2024-02-21T07:19:51.281Z,3.75
2024-02-21T07:22:18.840Z,4.07
2024-02-21T07:24:46.736Z,4.07
2024-02-21T07:27:15.436Z,3.95
2024-02-21T07:29:42.931Z,4.28
2024-02-21T07:32:11.113Z,4.05
2024-02-21T07:34:38.668Z,4.13
2024-02-21T07:37:06.094Z,3.97
2024-02-21T07:39:33.359Z,3.38
2024-02-21T07:42:01.273Z,4.00
2024-02-21T07:44:28.687Z,3.58
2024-02-21T07:46:56.284Z,4.18
2024-02-21T07:49:23.802Z,4.13
2024-02-21T07:51:51.450Z,4.30
2024-02-21T07:54:20.998Z,3.10
2024-02-21T07:56:49.259Z,3.38
2024-02-21T07:59:17.030Z,3.45
2024-02-21T08:01:45.838Z,3.80
2024-02-21T08:04:13.691Z,3.30
2024-02-21T08:06:41.313Z,2.97
2024-02-21T08:09:08.754Z,4.18
2024-02-21T08:11:36.146Z,3.90
2024-02-21T08:14:04.662Z,3.30
2024-02-21T08:16:32.273Z,3.45
2024-02-21T08:19:00.971Z,3.30
2024-02-21T08:21:28.309Z,3.22
2024-02-21T08:23:55.606Z,2.97
2024-02-21T08:26:22.924Z,4.30
2024-02-21T08:28:51.873Z,4.60
2024-02-21T08:31:22.259Z,4.25
2024-02-21T08:33:49.898Z,3.35
2024-02-21T08:36:21.426Z,3.90
2024-02-21T08:38:48.848Z,4.00
2024-02-21T08:41:16.472Z,4.00
2024-02-21T08:43:43.985Z,3.22
2024-02-21T08:46:11.564Z,4.25
2024-02-21T08:48:39.104Z,4.38
2024-02-21T08:51:06.927Z,4.75
2024-02-21T08:53:34.498Z,3.88
2024-02-21T08:56:02.165Z,4.55
2024-02-21T08:58:29.611Z,4.57
2024-02-21T09:00:57.919Z,3.83
2024-02-21T09:03:25.251Z,4.75
2024-02-21T09:05:53.243Z,3.95
2024-02-21T09:08:22.530Z,4.72
2024-02-21T09:10:50.065Z,3.80
2024-02-21T09:13:17.821Z,4.03
2024-02-21T09:15:45.195Z,3.92
2024-02-21T09:18:12.725Z,3.10
2024-02-21T09:20:40.249Z,3.58
2024-02-21T09:23:07.747Z,3.50
2024-02-21T09:25:35.160Z,3.45
2024-02-21T09:28:07.265Z,3.10
2024-02-21T09:30:35.485Z,3.45
2024-02-21T09:33:03.507Z,2.92
2024-02-21T09:35:31.044Z,3.38
2024-02-21T09:37:58.577Z,3.17
2024-02-21T09:40:26.333Z,2.58
2024-02-21T09:42:58.942Z,2.95
2024-02-21T09:45:26.374Z,2.67
2024-02-21T09:48:14.532Z,3.03
2024-02-21T09:50:42.629Z,2.97
2024-02-21T09:53:10.688Z,3.10
2024-02-21T09:55:41.462Z,2.15
2024-02-21T09:58:12.210Z,2.10
2024-02-21T10:00:50.381Z,2.65
2024-02-21T10:03:17.945Z,2.75
2024-02-21T10:05:49.148Z,3.08
2024-02-21T10:08:16.988Z,1.67
2024-02-21T10:10:48.253Z,2.65
2024-02-21T10:13:28.846Z,1.77
2024-02-21T10:16:03.930Z,2.03
2024-02-21T10:18:31.885Z,2.10
2024-02-21T10:21:06.081Z,1.67
2024-02-21T10:23:43.454Z,2.40
2024-02-21T10:26:11.343Z,2.05
2024-02-21T10:28:43.898Z,2.47
2024-02-21T10:31:11.790Z,2.00
2024-02-21T10:33:40.041Z,2.15
2024-02-21T10:36:11.228Z,1.50
2024-02-21T10:38:39.574Z,2.20
2024-02-21T10:41:07.932Z,2.15
2024-02-21T10:43:42.693Z,2.33
2024-02-21T10:46:11.143Z,1.85
2024-02-21T10:48:44.977Z,1.77
2024-02-21T10:51:23.623Z,1.88
2024-02-21T10:53:51.091Z,1.95
2024-02-21T10:56:25.121Z,1.40
2024-02-21T10:58:52.838Z,1.70
2024-02-21T11:01:20.548Z,1.88
2024-02-21T11:03:49.829Z,2.30
2024-02-21T11:06:18.456Z,2.40
2024-02-21T11:08:45.999Z,2.47
2024-02-21T11:11:27.290Z,2.17
2024-02-21T11:14:11.606Z,2.72
2024-02-21T11:16:42.741Z,1.73
2024-02-21T11:19:12.185Z,2.67
2024-02-21T11:21:39.898Z,2.10
2024-02-21T11:24:07.360Z,2.00
2024-02-21T11:26:34.888Z,3.35
2024-02-21T11:29:05.084Z,3.40
2024-02-21T11:31:42.565Z,3.53
2024-02-21T11:34:13.437Z,3.40
2024-02-21T11:36:52.620Z,2.88
2024-02-21T11:39:21.706Z,2.50
2024-02-21T11:42:09.416Z,2.38
2024-02-21T11:44:41.497Z,2.10
2024-02-21T11:47:09.184Z,3.35
2024-02-21T11:49:40.918Z,3.78
2024-02-21T11:52:08.495Z,2.70
2024-02-21T11:54:36.089Z,2.75
2024-02-21T11:57:05.248Z,1.55
2024-02-21T11:59:33.105Z,2.38
2024-02-21T12:02:06.757Z,2.28
2024-02-21T12:04:34.529Z,2.28
2024-02-21T12:07:04.853Z,2.45
2024-02-21T12:09:32.343Z,2.85
2024-02-21T12:12:00.609Z,3.08
2024-02-21T12:14:29.434Z,2.80
2024-02-21T12:16:56.926Z,2.70
2024-02-21T12:19:24.584Z,2.50
2024-02-21T12:21:52.701Z,2.38
2024-02-21T12:24:23.892Z,2.63
2024-02-21T12:26:55.165Z,2.78
2024-02-21T12:29:23.037Z,2.38
2024-02-21T12:31:50.554Z,2.35
2024-02-21T12:34:25.240Z,2.92
2024-02-21T12:36:58.681Z,2.25
2024-02-21T12:39:28.620Z,1.80
2024-02-21T12:41:57.181Z,1.90
2024-02-21T12:44:25.279Z,2.70
2024-02-21T12:46:55.106Z,2.35
2024-02-21T12:49:22.746Z,2.60
2024-02-21T12:51:52.210Z,1.73
2024-02-21T12:54:19.587Z,2.08
2024-02-21T12:56:47.075Z,2.20
2024-02-21T12:59:15.177Z,2.33
2024-02-21T13:01:43.065Z,1.75
2024-02-21T13:04:10.678Z,1.40
2024-02-21T13:06:38.851Z,2.28
2024-02-21T13:09:09.004Z,1.92
2024-02-21T13:11:36.958Z,1.70
2024-02-21T13:14:04.526Z,2.47
2024-02-21T13:16:33.002Z,2.50
2024-02-21T13:19:00.462Z,1.50
2024-02-21T13:21:27.982Z,2.55
2024-02-21T13:23:55.668Z,1.42
2024-02-21T13:26:23.274Z,1.88
2024-02-21T13:28:50.741Z,2.10
2024-02-21T13:31:18.249Z,1.67
2024-02-21T13:33:45.779Z,1.80
2024-02-21T13:36:13.509Z,1.75
2024-02-21T13:38:41.067Z,3.28
2024-02-21T13:41:08.675Z,1.83
2024-02-21T13:43:36.144Z,2.72
2024-02-21T13:46:06.102Z,1.83
2024-02-21T13:48:34.981Z,2.65
2024-02-21T13:51:03.406Z,2.78
2024-02-21T13:53:30.805Z,2.25
2024-02-21T13:55:58.179Z,1.98
2024-02-21T13:58:27.142Z,2.50
2024-02-21T14:00:55.070Z,1.98
2024-02-21T14:03:22.770Z,2.33
2024-02-21T14:05:50.720Z,2.33
2024-02-21T14:08:19.228Z,2.53
2024-02-21T14:10:46.769Z,2.70
2024-02-21T14:13:14.208Z,2.53
2024-02-21T14:15:42.082Z,2.15
2024-02-21T14:18:10.541Z,2.85
2024-02-21T14:20:38.123Z,2.83
2024-02-21T14:23:05.991Z,2.75
2024-02-21T14:25:34.659Z,2.92
2024-02-21T14:28:02.251Z,3.05
2024-02-21T14:30:29.743Z,2.22
2024-02-21T14:32:57.475Z,3.33
2024-02-21T14:35:25.231Z,2.65
2024-02-21T14:37:54.163Z,2.60
2024-02-21T14:40:22.376Z,2.47
2024-02-21T14:42:49.933Z,2.88
2024-02-21T14:45:17.498Z,2.40
2024-02-21T14:47:44.956Z,2.90
2024-02-21T14:50:12.474Z,2.90
2024-02-21T14:52:39.907Z,3.00
2024-02-21T14:55:07.706Z,2.67
2024-02-21T14:57:35.111Z,2.17
2024-02-21T15:00:02.746Z,2.95
2024-02-21T15:02:30.562Z,2.10
2024-02-21T15:04:58.028Z,2.50
2024-02-21T15:07:26.676Z,2.95
2024-02-21T15:09:54.420Z,2.80
2024-02-21T15:12:23.274Z,2.35
2024-02-21T15:14:51.209Z,1.52
2024-02-21T15:17:18.970Z,2.65
2024-02-21T15:19:46.681Z,3.08
2024-02-21T15:22:16.302Z,1.80
2024-02-21T15:24:43.825Z,2.13
2024-02-21T15:27:11.242Z,2.42
2024-02-21T15:29:38.737Z,1.98
2024-02-21T15:32:07.601Z,2.13
2024-02-21T15:34:35.396Z,2.03
2024-02-21T15:37:02.967Z,2.63
2024-02-21T15:39:30.219Z,2.35
2024-02-21T15:41:57.974Z,2.10
2024-02-21T15:44:25.792Z,2.03
2024-02-21T15:46:54.262Z,2.03
2024-02-21T15:49:22.614Z,2.20
2024-02-21T15:51:50.496Z,2.40
2024-02-21T15:54:22.112Z,3.22
2024-02-21T15:56:52.555Z,1.92
2024-02-21T15:59:19.971Z,2.17
2024-02-21T16:01:47.526Z,2.25
2024-02-21T16:04:16.609Z,1.58
2024-02-21T16:06:47.408Z,1.63
2024-02-21T16:09:16.399Z,2.22
2024-02-21T16:11:43.768Z,2.22
2024-02-21T16:14:13.111Z,2.35
2024-02-21T16:16:41.485Z,2.10
2024-02-21T16:19:09.302Z,2.28
2024-02-21T16:21:37.053Z,2.33
2024-02-21T16:24:05.228Z,2.08
2024-02-21T16:26:36.373Z,2.22
2024-02-21T16:29:04.113Z,1.95
2024-02-21T16:31:32.018Z,1.95
2024-02-21T16:33:59.491Z,1.80
2024-02-21T16:36:27.328Z,1.98
2024-02-21T16:38:54.791Z,2.38
2024-02-21T16:41:22.929Z,2.13
2024-02-21T16:43:50.420Z,1.80
2024-02-21T16:46:20.453Z,1.85
2024-02-21T16:48:48.103Z,1.98
2024-02-21T16:51:15.510Z,2.33
2024-02-21T16:53:42.893Z,2.17
2024-02-21T16:56:10.402Z,1.70
2024-02-21T16:58:38.315Z,1.98
2024-02-21T17:01:10.425Z,2.17
2024-02-21T17:03:41.379Z,1.60
2024-02-21T17:06:15.499Z,1.92
2024-02-21T17:08:45.396Z,2.10
2024-02-21T17:11:13.854Z,1.85
2024-02-21T17:13:43.011Z,1.92
2024-02-21T17:16:12.064Z,2.20
2024-02-21T17:18:40.622Z,2.45
2024-02-21T17:21:08.943Z,1.80
2024-02-21T17:23:36.579Z,1.63
2024-02-21T17:26:04.231Z,2.00
2024-02-21T17:28:32.581Z,1.73
2024-02-21T17:31:00.198Z,1.98
2024-02-21T17:33:28.055Z,1.83
2024-02-21T17:35:55.747Z,2.00
2024-02-21T17:38:24.070Z,1.70
2024-02-21T17:40:52.017Z,2.05
2024-02-21T17:43:22.186Z,1.63
2024-02-21T17:45:51.102Z,1.75
2024-02-21T17:48:18.742Z,1.67
2024-02-21T17:50:46.178Z,2.03
2024-02-21T17:53:13.788Z,1.98
2024-02-21T17:55:41.363Z,1.98
2024-02-21T17:58:08.805Z,1.85
2024-02-21T18:00:36.984Z,1.27
2024-02-21T18:03:04.482Z,1.77
2024-02-21T18:05:32.602Z,1.40
2024-02-21T18:08:00.216Z,1.67
2024-02-21T18:10:27.571Z,1.35
2024-02-21T18:12:55.491Z,2.20
2024-02-21T18:15:22.972Z,2.22
2024-02-21T18:17:50.349Z,1.67
2024-02-21T18:20:18.026Z,2.53
2024-02-21T18:22:45.419Z,2.40
2024-02-21T18:25:14.716Z,1.67
2024-02-21T18:27:42.006Z,2.08
2024-02-21T18:30:09.525Z,1.83
2024-02-21T18:32:37.841Z,1.85
2024-02-21T18:35:06.536Z,2.28
2024-02-21T18:37:34.056Z,1.90
2024-02-21T18:40:01.325Z,1.90
2024-02-21T18:42:28.818Z,1.60
2024-02-21T18:44:57.145Z,1.70
2024-02-21T18:47:24.541Z,1.48
2024-02-21T18:49:52.236Z,1.77
2024-02-21T18:52:20.428Z,1.73
2024-02-21T18:54:48.422Z,1.58
2024-02-21T18:57:17.077Z,1.80
2024-02-21T18:59:44.482Z,1.63
2024-02-21T19:02:11.903Z,1.63
2024-02-21T19:04:39.567Z,1.40
2024-02-21T19:07:07.038Z,1.70
2024-02-21T19:09:34.277Z,1.38
2024-02-21T19:12:02.529Z,1.50
2024-02-21T19:14:29.893Z,1.92
2024-02-21T19:16:57.365Z,1.60
2024-02-21T19:19:24.988Z,1.80
2024-02-21T19:21:52.493Z,1.45
2024-02-21T19:24:19.974Z,1.90
2024-02-21T19:26:47.377Z,1.77
2024-02-21T19:29:14.892Z,1.90
2024-02-21T19:31:42.297Z,1.80
2024-02-21T19:34:09.640Z,1.23
2024-02-21T19:36:39.554Z,1.60
2024-02-21T19:39:11.569Z,1.63
2024-02-21T19:41:39.721Z,1.27
2024-02-21T19:44:07.277Z,1.73
2024-02-21T19:46:37.297Z,1.50
2024-02-21T19:49:05.030Z,1.98
2024-02-21T19:51:32.454Z,1.67
2024-02-21T19:54:10.120Z,1.40
2024-02-21T19:56:46.992Z,1.70
2024-02-21T19:59:14.435Z,2.00
2024-02-21T20:01:42.149Z,1.33
2024-02-21T20:04:10.320Z,1.50
2024-02-21T20:06:38.388Z,1.42
2024-02-21T20:09:09.350Z,1.60
2024-02-21T20:11:37.176Z,1.42
2024-02-21T20:14:04.702Z,1.38
2024-02-21T20:16:32.341Z,1.60
2024-02-21T20:18:59.933Z,1.25
2024-02-21T20:21:27.375Z,1.42
2024-02-21T20:23:54.621Z,1.42
2024-02-21T20:26:23.458Z,1.17
2024-02-21T20:28:51.642Z,1.50
2024-02-21T20:31:21.650Z,1.42
2024-02-21T20:33:50.095Z,1.60
2024-02-21T20:36:17.562Z,1.40
2024-02-21T20:38:45.044Z,1.42
2024-02-21T20:41:21.710Z,1.40
2024-02-21T20:43:49.405Z,1.33
2024-02-21T20:46:16.693Z,1.55
2024-02-21T20:48:44.899Z,1.52
2024-02-21T20:51:12.558Z,1.52
2024-02-21T20:53:40.893Z,1.95
2024-02-21T20:56:11.537Z,1.52
2024-02-21T20:58:44.921Z,1.50
2024-02-21T21:01:12.279Z,1.20
2024-02-21T21:03:39.933Z,1.85
2024-02-21T21:06:07.418Z,1.55
2024-02-21T21:08:34.732Z,1.27
2024-02-21T21:11:04.193Z,1.55
2024-02-21T21:13:36.182Z,1.30
2024-02-21T21:16:04.065Z,1.60
2024-02-21T21:18:33.102Z,1.60
2024-02-21T21:21:01.097Z,1.38
2024-02-21T21:23:29.031Z,1.25
2024-02-21T21:25:56.804Z,1.65
2024-02-21T21:28:26.161Z,1.75
2024-02-21T21:30:54.237Z,1.77
2024-02-21T21:33:22.745Z,1.25
2024-02-21T21:35:53.458Z,2.15
2024-02-21T21:38:22.029Z,1.23
2024-02-21T21:40:52.033Z,1.35
2024-02-21T21:43:20.490Z,2.00
2024-02-21T21:45:49.076Z,1.70
2024-02-21T21:48:16.529Z,1.70
2024-02-21T21:50:44.017Z,1.65
2024-02-21T21:53:11.327Z,1.80
2024-02-21T21:55:39.156Z,1.38
2024-02-21T21:58:06.520Z,1.27
2024-02-21T22:00:34.265Z,1.42
2024-02-21T22:03:01.553Z,1.48
2024-02-21T22:05:29.224Z,1.40
2024-02-21T22:07:58.482Z,1.60
2024-02-21T22:10:28.189Z,1.75
2024-02-21T22:12:55.474Z,1.55
2024-02-21T22:15:22.828Z,2.00
2024-02-21T22:17:50.309Z,1.70
2024-02-21T22:20:23.608Z,1.95
2024-02-21T22:22:51.220Z,1.70
2024-02-21T22:25:20.551Z,1.85
2024-02-21T22:27:47.908Z,1.63
2024-02-21T22:30:15.250Z,1.50
2024-02-21T22:32:42.716Z,1.38
2024-02-21T22:35:10.417Z,1.60
2024-02-21T22:37:37.954Z,1.58
2024-02-21T22:40:05.552Z,2.30
2024-02-21T22:42:32.933Z,2.33
2024-02-21T22:45:00.377Z,1.38
2024-02-21T22:47:28.015Z,1.45
2024-02-21T22:49:55.454Z,1.60
2024-02-21T22:52:22.890Z,1.52
2024-02-21T22:54:50.351Z,1.92
2024-02-21T22:57:17.723Z,1.52
2024-02-21T22:59:45.166Z,2.00
2024-02-21T23:02:12.569Z,2.17
2024-02-21T23:04:40.153Z,1.55
2024-02-21T23:07:07.506Z,1.95
2024-02-21T23:09:35.560Z,1.40
2024-02-21T23:12:03.077Z,1.80
2024-02-21T23:14:30.528Z,1.60
2024-02-21T23:16:57.965Z,1.38
2024-02-21T23:19:25.458Z,1.70
2024-02-21T23:21:52.856Z,1.40
2024-02-21T23:24:22.526Z,1.60
2024-02-21T23:26:51.117Z,1.45
2024-02-21T23:29:18.612Z,1.60
2024-02-21T23:31:46.226Z,1.27
2024-02-21T23:34:14.169Z,1.42
2024-02-21T23:36:41.665Z,1.85
2024-02-21T23:39:09.033Z,1.65
2024-02-21T23:41:36.700Z,1.80
2024-02-21T23:44:04.075Z,1.73
2024-02-21T23:46:31.642Z,1.75
2024-02-21T23:49:02.663Z,1.63
2024-02-21T23:51:33.698Z,1.70
2024-02-21T23:54:02.123Z,2.10
2024-02-21T23:56:29.701Z,1.80
2024-02-21T23:58:57.270Z,1.70
